createdAt,value
2023-09-10T00:02:01.957Z,23.25
2023-09-10T00:07:03.644Z,23.35
2023-09-10T00:12:05.187Z,22.80
2023-09-10T00:17:06.676Z,25.10
2023-09-10T00:22:08.405Z,23.80
2023-09-10T00:27:09.908Z,20.15
2023-09-10T00:32:11.397Z,22.17
2023-09-10T00:37:13.986Z,24.05
2023-09-10T00:42:15.504Z,22.55
2023-09-10T00:47:17.104Z,22.13
2023-09-10T00:52:19.011Z,22.25
2023-09-10T00:57:20.818Z,25.35
2023-09-10T01:02:22.546Z,21.40
2023-09-10T01:07:24.160Z,24.67
2023-09-10T01:12:30.999Z,22.27
2023-09-10T01:17:32.586Z,25.65
2023-09-10T01:22:52.576Z,22.23
2023-09-10T01:27:54.044Z,20.33
2023-09-10T01:32:59.957Z,21.00
2023-09-10T01:38:16.161Z,22.58
2023-09-10T01:43:18.278Z,22.38
2023-09-10T01:48:20.380Z,22.63
2023-09-10T01:53:21.822Z,20.95
2023-09-10T01:58:23.665Z,24.40
2023-09-10T02:03:25.237Z,22.17
2023-09-10T02:08:26.780Z,24.80
2023-09-10T02:13:28.250Z,24.98
2023-09-10T02:18:29.888Z,24.77
2023-09-10T02:23:31.311Z,24.98
2023-09-10T02:28:34.224Z,23.60
2023-09-10T02:33:36.248Z,25.10
2023-09-10T02:38:38.198Z,23.98
2023-09-10T02:43:39.970Z,24.80
2023-09-10T02:48:41.747Z,26.92
2023-09-10T02:53:43.347Z,28.75
2023-09-10T02:58:44.900Z,26.73
2023-09-10T03:03:46.529Z,28.77
2023-09-10T03:08:48.144Z,29.15
2023-09-10T03:13:49.654Z,27.27
2023-09-10T03:18:51.166Z,26.67
2023-09-10T03:23:52.630Z,26.55
2023-09-10T03:28:54.061Z,27.65
2023-09-10T03:33:55.532Z,28.95
2023-09-10T03:38:57.024Z,28.27
2023-09-10T03:43:59.759Z,23.90
2023-09-10T03:49:01.265Z,22.98
2023-09-10T03:54:02.908Z,26.23
2023-09-10T03:59:04.357Z,27.15
2023-09-10T04:04:05.991Z,26.80
2023-09-10T04:09:08.229Z,25.92
2023-09-10T04:14:09.746Z,25.15
2023-09-10T04:19:11.214Z,25.40
2023-09-10T04:24:12.638Z,25.88
2023-09-10T04:29:14.163Z,22.85
2023-09-10T04:34:15.721Z,24.98
2023-09-10T04:39:17.910Z,26.05
2023-09-10T04:44:19.448Z,20.98
2023-09-10T04:49:20.881Z,26.13
2023-09-10T04:54:22.406Z,24.38
2023-09-10T04:59:24.039Z,25.17
2023-09-10T05:04:25.778Z,25.38
2023-09-10T05:09:27.319Z,26.83
2023-09-10T05:14:28.873Z,22.60
2023-09-10T05:19:30.451Z,30.73
2023-09-10T05:24:32.191Z,23.98
2023-09-10T05:29:33.819Z,26.48
2023-09-10T05:34:36.309Z,23.52
2023-09-10T05:39:37.721Z,24.85
2023-09-10T05:44:39.167Z,22.83
2023-09-10T05:49:40.695Z,20.80
2023-09-10T05:54:42.423Z,21.55
2023-09-10T05:59:43.902Z,20.55
2023-09-10T06:04:45.507Z,21.42
2023-09-10T06:09:47.059Z,21.00
2023-09-10T06:14:48.598Z,17.70
2023-09-10T06:19:52.547Z,22.02
2023-09-10T06:24:54.424Z,20.45
2023-09-10T06:29:55.928Z,23.17
2023-09-10T06:34:57.407Z,24.00
2023-09-10T06:39:58.973Z,20.52
2023-09-10T06:45:00.554Z,20.92
2023-09-10T06:50:02.598Z,21.40
2023-09-10T06:55:04.616Z,23.55
2023-09-10T07:00:06.479Z,23.05
2023-09-10T07:05:08.621Z,22.92
2023-09-10T07:10:11.665Z,23.90
2023-09-10T07:15:13.342Z,24.88
2023-09-10T07:20:14.891Z,24.48
2023-09-10T07:25:16.470Z,26.80
2023-09-10T07:30:18.056Z,26.40
2023-09-10T07:35:19.557Z,22.58
2023-09-10T07:40:21.116Z,26.30
2023-09-10T07:45:22.665Z,27.25
2023-09-10T07:50:24.298Z,24.25
2023-09-10T07:55:26.448Z,22.67
2023-09-10T08:00:28.161Z,24.83
2023-09-10T08:05:29.917Z,22.48
2023-09-10T08:10:31.764Z,23.33
2023-09-10T08:15:33.320Z,25.10
2023-09-10T08:20:34.796Z,20.60
2023-09-10T08:25:36.446Z,28.30
2023-09-10T08:30:39.028Z,21.50
2023-09-10T08:35:45.438Z,20.70
2023-09-10T08:40:55.985Z,21.33
2023-09-10T08:45:57.559Z,21.50
2023-09-10T08:50:59.753Z,24.05
2023-09-10T08:56:01.897Z,18.20
2023-09-10T09:01:04.539Z,19.10
2023-09-10T09:06:06.416Z,20.00
2023-09-10T09:11:09.128Z,18.52
2023-09-10T09:16:11.813Z,21.02
2023-09-10T09:21:17.814Z,22.30
2023-09-10T09:26:19.565Z,20.95
2023-09-10T09:31:21.394Z,18.38
2023-09-10T09:36:28.315Z,17.92
2023-09-10T09:41:29.861Z,17.60
2023-09-10T09:46:34.977Z,17.75
2023-09-10T09:51:39.225Z,19.85
2023-09-10T09:56:43.283Z,19.77
2023-09-10T10:01:45.185Z,19.05
2023-09-10T10:06:49.627Z,21.73
2023-09-10T10:11:51.515Z,17.90
2023-09-10T10:16:53.697Z,17.92
2023-09-10T10:21:56.319Z,22.05
2023-09-10T10:26:59.293Z,15.88
2023-09-10T10:32:09.920Z,19.67
2023-09-10T10:37:11.529Z,16.40
2023-09-10T10:42:13.913Z,14.65
2023-09-10T10:47:23.727Z,14.25
2023-09-10T10:52:30.811Z,15.55
2023-09-10T10:57:32.651Z,15.68
2023-09-10T11:02:34.177Z,13.63
2023-09-10T11:07:37.001Z,14.30
2023-09-10T11:12:40.281Z,14.50
2023-09-10T11:17:41.969Z,16.27
2023-09-10T11:23:02.237Z,16.33
2023-09-10T11:28:04.099Z,14.77
2023-09-10T11:33:32.185Z,13.95
2023-09-10T11:38:34.239Z,12.82
2023-09-10T11:43:38.451Z,13.15
2023-09-10T11:48:40.348Z,11.63
2023-09-10T11:53:42.120Z,13.50
2023-09-10T11:58:43.616Z,14.48
2023-09-10T12:03:45.740Z,13.00
2023-09-10T12:08:47.452Z,13.85
2023-09-10T12:13:49.048Z,14.30
2023-09-10T12:18:52.093Z,13.20
2023-09-10T12:23:53.560Z,13.10
2023-09-10T12:28:55.221Z,13.65
2023-09-10T12:33:56.884Z,13.30
2023-09-10T12:39:00.195Z,12.18
2023-09-10T12:44:01.724Z,16.08
2023-09-10T12:49:03.303Z,14.90
2023-09-10T12:54:04.895Z,14.43
2023-09-10T12:59:09.585Z,17.25
2023-09-10T13:04:11.219Z,13.63
2023-09-10T13:09:12.899Z,13.18
2023-09-10T13:14:14.428Z,14.00
2023-09-10T13:19:15.984Z,13.07
2023-09-10T13:24:17.526Z,13.65
2023-09-10T13:29:19.061Z,14.05
2023-09-10T13:34:20.604Z,14.10
2023-09-10T13:39:22.050Z,12.18
2023-09-10T13:44:23.697Z,14.55
2023-09-10T13:49:25.711Z,14.38
2023-09-10T13:54:27.214Z,15.13
2023-09-10T13:59:28.759Z,14.20
2023-09-10T14:04:31.257Z,12.52
2023-09-10T14:09:32.817Z,12.75
2023-09-10T14:14:34.370Z,15.20
2023-09-10T14:19:35.926Z,15.43
2023-09-10T14:24:37.357Z,17.08
2023-09-10T14:29:38.870Z,12.95
2023-09-10T14:34:40.503Z,12.55
2023-09-10T14:39:42.741Z,16.92
2023-09-10T14:44:44.644Z,14.02
2023-09-10T14:49:46.144Z,13.15
2023-09-10T14:54:48.129Z,13.05
2023-09-10T14:59:49.824Z,14.00
2023-09-10T15:04:51.312Z,13.80
2023-09-10T15:09:52.773Z,15.07
2023-09-10T15:14:54.222Z,15.07
2023-09-10T15:19:55.742Z,17.60
2023-09-10T15:24:57.462Z,13.93
2023-09-10T15:29:58.981Z,14.95
2023-09-10T15:35:00.521Z,13.30
2023-09-10T15:40:03.179Z,14.40
2023-09-10T15:45:05.131Z,15.52
2023-09-10T15:50:07.177Z,15.45
2023-09-10T15:55:08.778Z,16.77
2023-09-10T16:00:11.712Z,13.27
2023-09-10T16:05:13.476Z,13.55
2023-09-10T16:10:14.958Z,12.52
2023-09-10T16:15:16.668Z,14.63
2023-09-10T16:20:18.242Z,14.27
2023-09-10T16:25:23.784Z,12.82
2023-09-10T16:30:25.298Z,14.90
2023-09-10T16:35:26.828Z,12.65
2023-09-10T16:40:28.596Z,14.10
2023-09-10T16:45:30.236Z,14.10
2023-09-10T16:50:31.843Z,17.05
2023-09-10T16:55:34.683Z,13.68
2023-09-10T17:00:36.746Z,17.13
2023-09-10T17:05:38.273Z,13.85
2023-09-10T17:10:39.839Z,14.60
2023-09-10T17:15:41.491Z,14.88
2023-09-10T17:20:43.055Z,11.88
2023-09-10T17:25:45.200Z,18.08
2023-09-10T17:30:46.758Z,15.45
2023-09-10T17:35:48.415Z,14.98
2023-09-10T17:40:49.931Z,15.73
2023-09-10T17:45:51.549Z,16.75
2023-09-10T17:50:53.131Z,14.38
2023-09-10T17:55:54.687Z,14.65
2023-09-10T18:00:56.864Z,15.77
2023-09-10T18:05:58.365Z,16.92
2023-09-10T18:11:00.121Z,15.43
2023-09-10T18:16:01.675Z,14.80
2023-09-10T18:21:03.243Z,14.40
2023-09-10T18:26:05.694Z,14.25
2023-09-10T18:31:07.209Z,14.13
2023-09-10T18:36:08.898Z,14.15
2023-09-10T18:41:10.487Z,13.93
2023-09-10T18:46:12.238Z,16.13
2023-09-10T18:51:13.761Z,14.52
2023-09-10T18:56:15.328Z,14.60
2023-09-10T19:01:17.640Z,13.82
2023-09-10T19:06:19.214Z,14.43
2023-09-10T19:11:20.747Z,14.48
2023-09-10T19:16:22.348Z,15.55
2023-09-10T19:21:24.193Z,16.20
2023-09-10T19:26:25.751Z,16.40
2023-09-10T19:31:34.371Z,12.98
2023-09-10T19:36:36.243Z,16.35
2023-09-10T19:41:39.223Z,14.82
2023-09-10T19:46:41.057Z,17.55
2023-09-10T19:51:42.648Z,15.90
2023-09-10T19:56:44.611Z,15.65
2023-09-10T20:01:46.106Z,16.05
2023-09-10T20:06:48.473Z,15.07
2023-09-10T20:11:50.083Z,16.80
2023-09-10T20:16:51.664Z,14.52
2023-09-10T20:21:53.529Z,17.95
2023-09-10T20:26:55.254Z,18.65
2023-09-10T20:31:56.831Z,16.63
2023-09-10T20:36:58.372Z,16.42
2023-09-10T20:42:00.129Z,15.23
2023-09-10T20:47:01.800Z,17.35
2023-09-10T20:52:03.444Z,16.63
2023-09-10T20:57:05.559Z,20.52
2023-09-10T21:02:07.060Z,15.73
2023-09-10T21:07:08.828Z,19.77
2023-09-10T21:12:10.444Z,19.70
2023-09-10T21:17:12.157Z,16.10
2023-09-10T21:22:13.649Z,17.10
2023-09-10T21:27:15.124Z,18.08
2023-09-10T21:32:16.609Z,19.40
2023-09-10T21:37:18.091Z,19.65
2023-09-10T21:42:19.899Z,17.13
2023-09-10T21:47:21.630Z,19.92
2023-09-10T21:52:23.167Z,18.27
2023-09-10T21:57:25.833Z,16.38
2023-09-10T22:02:27.484Z,16.05
2023-09-10T22:07:29.105Z,16.50
2023-09-10T22:12:30.683Z,16.52
2023-09-10T22:17:32.485Z,20.20
2023-09-10T22:22:34.006Z,18.10
2023-09-10T22:27:35.576Z,16.83
2023-09-10T22:32:37.103Z,17.73
2023-09-10T22:37:38.642Z,16.65
2023-09-10T22:42:40.201Z,20.90
2023-09-10T22:47:43.125Z,17.05
2023-09-10T22:52:44.922Z,18.15
2023-09-10T22:57:46.508Z,19.58
2023-09-10T23:02:48.733Z,17.48
2023-09-10T23:07:50.252Z,18.00
2023-09-10T23:12:54.519Z,17.92
2023-09-10T23:17:56.489Z,18.60
2023-09-10T23:23:00.043Z,18.67
2023-09-10T23:28:01.574Z,17.55
2023-09-10T23:33:03.328Z,16.52
2023-09-10T23:38:05.505Z,18.95
2023-09-10T23:43:07.037Z,20.00
2023-09-10T23:48:08.587Z,18.80
2023-09-10T23:53:10.297Z,18.80
2023-09-10T23:58:11.766Z,18.33
